sensor_id;sensor_type;location;lat;lon;timestamp;pressure;altitude;pressure_sealevel;temperature;humidity
7018;BME280;3549;42.162;24.726;2022-12-10T00:00:33;47926.56;;;-141.97;100.00
7018;BME280;3549;42.162;24.726;2022-12-10T00:02:58;47899.66;;;-141.97;100.00
7018;BME280;3549;42.162;24.726;2022-12-10T00:05:24;47872.75;;;-141.97;100.00
7018;BME280;3549;42.162;24.726;2022-12-10T00:07:49;47899.66;;;-141.97;100.00
7018;BME280;3549;42.162;24.726;2022-12-10T00:10:14;47915.03;;;-141.97;100.00
7018;BME280;3549;42.162;24.726;2022-12-10T00:12:40;47918.88;;;-141.97;100.00
7018;BME280;3549;42.162;24.726;2022-12-10T00:15:06;47926.56;;;-141.97;100.00
7018;BME280;3549;42.162;24.726;2022-12-10T00:17:31;47936.19;;;-141.97;100.00
7018;BME280;3549;42.162;24.726;2022-12-10T00:19:56;47878.53;;;-141.97;100.00
7018;BME280;3549;42.162;24.726;2022-12-10T00:22:22;47941.94;;;-141.97;100.00
7018;BME280;3549;42.162;24.726;2022-12-10T00:24:47;47949.66;;;-141.97;100.00
7018;BME280;3549;42.162;24.726;2022-12-10T00:27:12;47918.88;;;-141.97;100.00
7018;BME280;3549;42.162;24.726;2022-12-10T00:29:39;47926.56;;;-141.97;100.00
7018;BME280;3549;42.162;24.726;2022-12-10T00:32:04;47947.72;;;-141.97;100.00
7018;BME280;3549;42.162;24.726;2022-12-10T00:34:31;47895.81;;;-141.97;100.00
7018;BME280;3549;42.162;24.726;2022-12-10T00:36:56;47874.69;;;-141.97;100.00
7018;BME280;3549;42.162;24.726;2022-12-10T00:39:22;47930.41;;;-141.97;100.00
7018;BME280;3549;42.162;24.726;2022-12-10T00:41:47;47936.19;;;-141.97;100.00
7018;BME280;3549;42.162;24.726;2022-12-10T00:44:14;47907.34;;;-141.97;100.00
7018;BME280;3549;42.162;24.726;2022-12-10T00:46:40;47882.38;;;-141.97;100.00
7018;BME280;3549;42.162;24.726;2022-12-10T00:49:05;47861.22;;;-141.97;100.00
7018;BME280;3549;42.162;24.726;2022-12-10T00:51:31;47918.88;;;-141.97;100.00
7018;BME280;3549;42.162;24.726;2022-12-10T00:53:58;47899.66;;;-141.97;100.00
7018;BME280;3549;42.162;24.726;2022-12-10T00:56:27;47922.72;;;-141.97;100.00
7018;BME280;3549;42.162;24.726;2022-12-10T00:58:54;47861.22;;;-141.97;100.00
7018;BME280;3549;42.162;24.726;2022-12-10T01:01:25;47895.81;;;-141.97;100.00
7018;BME280;3549;42.162;24.726;2022-12-10T01:03:53;47915.03;;;-141.97;100.00
7018;BME280;3549;42.162;24.726;2022-12-10T01:06:22;47872.75;;;-141.97;100.00
7018;BME280;3549;42.162;24.726;2022-12-10T01:08:49;47972.72;;;-141.97;100.00
7018;BME280;3549;42.162;24.726;2022-12-10T01:11:16;47949.66;;;-141.97;100.00
7018;BME280;3549;42.162;24.726;2022-12-10T01:13:42;47861.22;;;-141.97;100.00
7018;BME280;3549;42.162;24.726;2022-12-10T01:16:10;47938.09;;;-141.97;100.00
7018;BME280;3549;42.162;24.726;2022-12-10T01:18:36;47922.72;;;-141.97;100.00
7018;BME280;3549;42.162;24.726;2022-12-10T01:21:03;47909.28;;;-141.97;100.00
7018;BME280;3549;42.162;24.726;2022-12-10T01:23:31;47924.66;;;-141.97;100.00
7018;BME280;3549;42.162;24.726;2022-12-10T01:26:00;47959.25;;;-141.97;100.00
7018;BME280;3549;42.162;24.726;2022-12-10T01:28:25;47765.09;;;-141.97;100.00
7018;BME280;3549;42.162;24.726;2022-12-10T01:30:52;47901.59;;;-141.97;100.00
7018;BME280;3549;42.162;24.726;2022-12-10T01:33:18;47857.38;;;-141.97;100.00
7018;BME280;3549;42.162;24.726;2022-12-10T01:35:43;47824.69;;;-141.97;100.00
7018;BME280;3549;42.162;24.726;2022-12-10T01:38:08;47918.88;;;-141.97;100.00
7018;BME280;3549;42.162;24.726;2022-12-10T01:40:37;47961.19;;;-141.97;100.00
7018;BME280;3549;42.162;24.726;2022-12-10T01:43:03;47901.59;;;-141.97;100.00
7018;BME280;3549;42.162;24.726;2022-12-10T01:45:28;47922.72;;;-141.97;100.00
7018;BME280;3549;42.162;24.726;2022-12-10T01:47:54;47907.34;;;-141.97;100.00
7018;BME280;3549;42.162;24.726;2022-12-10T01:50:19;47993.84;;;-141.97;100.00
7018;BME280;3549;42.162;24.726;2022-12-10T01:52:45;47895.81;;;-141.97;100.00
7018;BME280;3549;42.162;24.726;2022-12-10T01:58:01;47951.56;;;-141.97;100.00
7018;BME280;3549;42.162;24.726;2022-12-10T02:00:27;47909.28;;;-141.97;100.00
7018;BME280;3549;42.162;24.726;2022-12-10T02:03:00;47901.59;;;-141.97;100.00
7018;BME280;3549;42.162;24.726;2022-12-10T02:05:39;47866.97;;;-141.97;100.00
7018;BME280;3549;42.162;24.726;2022-12-10T02:08:24;47897.75;;;-141.97;100.00
7018;BME280;3549;42.162;24.726;2022-12-10T02:11:19;47941.94;;;-141.97;100.00
7018;BME280;3549;42.162;24.726;2022-12-10T02:17:11;47930.41;;;-141.97;100.00
7018;BME280;3549;42.162;24.726;2022-12-10T02:22:07;47915.03;;;-141.97;100.00
7018;BME280;3549;42.162;24.726;2022-12-10T02:24:36;47922.72;;;-141.97;100.00
7018;BME280;3549;42.162;24.726;2022-12-10T02:27:08;47826.63;;;-141.97;100.00
7018;BME280;3549;42.162;24.726;2022-12-10T02:29:37;47951.56;;;-141.97;100.00
7018;BME280;3549;42.162;24.726;2022-12-10T02:34:32;47903.50;;;-141.97;100.00
7018;BME280;3549;42.162;24.726;2022-12-10T02:37:04;47915.03;;;-141.97;100.00
7018;BME280;3549;42.162;24.726;2022-12-10T02:39:37;47915.03;;;-141.97;100.00
7018;BME280;3549;42.162;24.726;2022-12-10T02:42:04;47895.81;;;-141.97;100.00
7018;BME280;3549;42.162;24.726;2022-12-10T02:44:30;47916.97;;;-141.97;100.00
7018;BME280;3549;42.162;24.726;2022-12-10T02:46:58;47888.13;;;-141.97;100.00
7018;BME280;3549;42.162;24.726;2022-12-10T02:49:25;47899.66;;;-141.97;100.00
7018;BME280;3549;42.162;24.726;2022-12-10T02:51:52;47936.19;;;-141.97;100.00
7018;BME280;3549;42.162;24.726;2022-12-10T02:54:37;47890.06;;;-141.97;100.00
7018;BME280;3549;42.162;24.726;2022-12-10T03:02:13;47915.03;;;-141.97;100.00
7018;BME280;3549;42.162;24.726;2022-12-10T03:07:15;47899.66;;;-141.97;100.00
7018;BME280;3549;42.162;24.726;2022-12-10T03:09:53;47926.56;;;-141.97;100.00
7018;BME280;3549;42.162;24.726;2022-12-10T03:12:43;47915.03;;;-141.97;100.00
7018;BME280;3549;42.162;24.726;2022-12-10T03:15:11;47926.56;;;-141.97;100.00
7018;BME280;3549;42.162;24.726;2022-12-10T03:17:38;47924.66;;;-141.97;100.00
7018;BME280;3549;42.162;24.726;2022-12-10T03:20:07;47884.28;;;-141.97;100.00
7018;BME280;3549;42.162;24.726;2022-12-10T03:22:34;47990.00;;;-141.97;100.00
7018;BME280;3549;42.162;24.726;2022-12-10T03:25:02;48011.16;;;-141.97;100.00
7018;BME280;3549;42.162;24.726;2022-12-10T03:27:29;47907.34;;;-141.97;100.00
7018;BME280;3549;42.162;24.726;2022-12-10T03:29:57;47822.78;;;-141.97;100.00
7018;BME280;3549;42.162;24.726;2022-12-10T03:32:25;47934.25;;;-141.97;100.00
7018;BME280;3549;42.162;24.726;2022-12-10T03:34:54;47938.09;;;-141.97;100.00
7018;BME280;3549;42.162;24.726;2022-12-10T03:37:22;47928.50;;;-141.97;100.00
7018;BME280;3549;42.162;24.726;2022-12-10T03:39:48;48015.00;;;-141.97;100.00
7018;BME280;3549;42.162;24.726;2022-12-10T03:42:14;47913.13;;;-141.97;100.00
7018;BME280;3549;42.162;24.726;2022-12-10T03:44:39;47976.56;;;-141.97;100.00
7018;BME280;3549;42.162;24.726;2022-12-10T03:47:12;47953.50;;;-141.97;100.00
7018;BME280;3549;42.162;24.726;2022-12-10T03:49:38;47940.03;;;-141.97;100.00
7018;BME280;3549;42.162;24.726;2022-12-10T03:52:04;47913.13;;;-141.97;100.00
7018;BME280;3549;42.162;24.726;2022-12-10T03:54:29;47918.88;;;-141.97;100.00
7018;BME280;3549;42.162;24.726;2022-12-10T03:56:55;47951.56;;;-141.97;100.00
7018;BME280;3549;42.162;24.726;2022-12-10T03:59:20;47909.28;;;-141.97;100.00
7018;BME280;3549;42.162;24.726;2022-12-10T04:01:47;47955.41;;;-141.97;100.00
7018;BME280;3549;42.162;24.726;2022-12-10T04:04:12;47897.75;;;-141.97;100.00
7018;BME280;3549;42.162;24.726;2022-12-10T04:06:39;47915.03;;;-141.97;100.00
7018;BME280;3549;42.162;24.726;2022-12-10T04:09:05;47880.44;;;-141.97;100.00
7018;BME280;3549;42.162;24.726;2022-12-10T04:11:31;47897.75;;;-141.97;100.00
7018;BME280;3549;42.162;24.726;2022-12-10T04:13:56;47930.41;;;-141.97;100.00
7018;BME280;3549;42.162;24.726;2022-12-10T04:16:40;47897.75;;;-141.97;100.00
7018;BME280;3549;42.162;24.726;2022-12-10T04:19:09;47918.88;;;-141.97;100.00
7018;BME280;3549;42.162;24.726;2022-12-10T04:21:37;47924.66;;;-141.97;100.00
7018;BME280;3549;42.162;24.726;2022-12-10T04:24:24;47924.66;;;-141.97;100.00
7018;BME280;3549;42.162;24.726;2022-12-10T04:27:12;47916.97;;;-141.97;100.00
7018;BME280;3549;42.162;24.726;2022-12-10T04:29:39;47924.66;;;-141.97;100.00
7018;BME280;3549;42.162;24.726;2022-12-10T04:32:05;47907.34;;;-141.97;100.00
7018;BME280;3549;42.162;24.726;2022-12-10T04:34:31;47913.13;;;-141.97;100.00
7018;BME280;3549;42.162;24.726;2022-12-10T04:36:58;48007.31;;;-141.97;100.00
7018;BME280;3549;42.162;24.726;2022-12-10T04:39:23;47938.09;;;-141.97;100.00
7018;BME280;3549;42.162;24.726;2022-12-10T04:41:49;47951.56;;;-141.97;100.00
7018;BME280;3549;42.162;24.726;2022-12-10T04:44:15;47903.50;;;-141.97;100.00
7018;BME280;3549;42.162;24.726;2022-12-10T04:46:41;47792.03;;;-141.97;100.00
7018;BME280;3549;42.162;24.726;2022-12-10T04:49:06;47913.13;;;-141.97;100.00
7018;BME280;3549;42.162;24.726;2022-12-10T04:51:32;47922.72;;;-141.97;100.00
7018;BME280;3549;42.162;24.726;2022-12-10T04:53:58;47941.94;;;-141.97;100.00
7018;BME280;3549;42.162;24.726;2022-12-10T04:56:24;47938.09;;;-141.97;100.00
7018;BME280;3549;42.162;24.726;2022-12-10T04:58:50;47865.06;;;-141.97;100.00
7018;BME280;3549;42.162;24.726;2022-12-10T05:01:15;47843.91;;;-141.97;100.00
7018;BME280;3549;42.162;24.726;2022-12-10T05:03:41;47897.75;;;-141.97;100.00
7018;BME280;3549;42.162;24.726;2022-12-10T05:06:09;47930.41;;;-141.97;100.00
7018;BME280;3549;42.162;24.726;2022-12-10T05:08:36;48003.47;;;-141.97;100.00
7018;BME280;3549;42.162;24.726;2022-12-10T05:11:10;47916.97;;;-141.97;100.00
7018;BME280;3549;42.162;24.726;2022-12-10T05:13:36;47938.09;;;-141.97;100.00
7018;BME280;3549;42.162;24.726;2022-12-10T05:16:03;47934.25;;;-141.97;100.00
7018;BME280;3549;42.162;24.726;2022-12-10T05:18:29;47886.22;;;-141.97;100.00
7018;BME280;3549;42.162;24.726;2022-12-10T05:20:54;48051.53;;;-141.97;100.00
7018;BME280;3549;42.162;24.726;2022-12-10T05:23:22;48013.06;;;-141.97;100.00
7018;BME280;3549;42.162;24.726;2022-12-10T05:28:33;47961.19;;;-141.97;100.00
7018;BME280;3549;42.162;24.726;2022-12-10T05:30:59;47945.81;;;-141.97;100.00
7018;BME280;3549;42.162;24.726;2022-12-10T05:33:25;47926.56;;;-141.97;100.00
7018;BME280;3549;42.162;24.726;2022-12-10T05:36:01;47899.66;;;-141.97;100.00
7018;BME280;3549;42.162;24.726;2022-12-10T05:38:30;47938.09;;;-141.97;100.00
7018;BME280;3549;42.162;24.726;2022-12-10T05:41:00;48003.47;;;-141.97;100.00
7018;BME280;3549;42.162;24.726;2022-12-10T05:43:27;47895.81;;;-141.97;100.00
7018;BME280;3549;42.162;24.726;2022-12-10T05:45:52;47926.56;;;-141.97;100.00
7018;BME280;3549;42.162;24.726;2022-12-10T05:48:17;47922.72;;;-141.97;100.00
7018;BME280;3549;42.162;24.726;2022-12-10T05:50:44;47918.88;;;-141.97;100.00
7018;BME280;3549;42.162;24.726;2022-12-10T05:53:09;47926.56;;;-141.97;100.00
7018;BME280;3549;42.162;24.726;2022-12-10T05:55:35;47934.25;;;-141.97;100.00
7018;BME280;3549;42.162;24.726;2022-12-10T05:58:00;47953.50;;;-141.97;100.00
7018;BME280;3549;42.162;24.726;2022-12-10T06:00:27;47922.72;;;-141.97;100.00
7018;BME280;3549;42.162;24.726;2022-12-10T06:02:53;47832.38;;;-141.97;100.00
7018;BME280;3549;42.162;24.726;2022-12-10T06:05:18;47907.34;;;-141.97;100.00
7018;BME280;3549;42.162;24.726;2022-12-10T06:07:43;47945.81;;;-141.97;100.00
7018;BME280;3549;42.162;24.726;2022-12-10T06:10:09;47907.34;;;-141.97;100.00
7018;BME280;3549;42.162;24.726;2022-12-10T06:12:35;47915.03;;;-141.97;100.00
7018;BME280;3549;42.162;24.726;2022-12-10T06:15:01;47911.19;;;-141.97;100.00
7018;BME280;3549;42.162;24.726;2022-12-10T06:17:26;47916.97;;;-141.97;100.00
7018;BME280;3549;42.162;24.726;2022-12-10T06:19:52;47949.66;;;-141.97;100.00
7018;BME280;3549;42.162;24.726;2022-12-10T06:22:17;47936.19;;;-141.97;100.00
7018;BME280;3549;42.162;24.726;2022-12-10T06:24:42;48003.47;;;-141.97;100.00
7018;BME280;3549;42.162;24.726;2022-12-10T06:27:08;47818.94;;;-141.97;100.00
7018;BME280;3549;42.162;24.726;2022-12-10T06:29:33;47928.50;;;-141.97;100.00
7018;BME280;3549;42.162;24.726;2022-12-10T06:31:59;47918.88;;;-141.97;100.00
7018;BME280;3549;42.162;24.726;2022-12-10T06:34:24;47824.69;;;-141.97;100.00
7018;BME280;3549;42.162;24.726;2022-12-10T06:36:50;47915.03;;;-141.97;100.00
7018;BME280;3549;42.162;24.726;2022-12-10T06:39:15;47895.81;;;-141.97;100.00
7018;BME280;3549;42.162;24.726;2022-12-10T06:41:40;47951.56;;;-141.97;100.00
7018;BME280;3549;42.162;24.726;2022-12-10T06:44:09;47911.19;;;-141.97;100.00
7018;BME280;3549;42.162;24.726;2022-12-10T06:46:35;47918.88;;;-141.97;100.00
7018;BME280;3549;42.162;24.726;2022-12-10T06:49:01;47895.81;;;-141.97;100.00
7018;BME280;3549;42.162;24.726;2022-12-10T06:51:26;47924.66;;;-141.97;100.00
7018;BME280;3549;42.162;24.726;2022-12-10T06:53:52;47907.34;;;-141.97;100.00
7018;BME280;3549;42.162;24.726;2022-12-10T06:56:19;47861.22;;;-141.97;100.00
7018;BME280;3549;42.162;24.726;2022-12-10T06:58:45;47938.09;;;-141.97;100.00
7018;BME280;3549;42.162;24.726;2022-12-10T07:01:16;47893.91;;;-141.97;100.00
7018;BME280;3549;42.162;24.726;2022-12-10T07:03:42;47897.75;;;-141.97;100.00
7018;BME280;3549;42.162;24.726;2022-12-10T07:06:09;47903.50;;;-141.97;100.00
7018;BME280;3549;42.162;24.726;2022-12-10T07:08:36;47951.56;;;-141.97;100.00
7018;BME280;3549;42.162;24.726;2022-12-10T07:11:11;47953.50;;;-141.97;100.00
7018;BME280;3549;42.162;24.726;2022-12-10T07:13:37;48026.53;;;-141.97;100.00
7018;BME280;3549;42.162;24.726;2022-12-10T07:16:07;47947.72;;;-141.97;100.00
7018;BME280;3549;42.162;24.726;2022-12-10T07:18:36;47897.75;;;-141.97;100.00
7018;BME280;3549;42.162;24.726;2022-12-10T07:21:01;47922.72;;;-141.97;100.00
7018;BME280;3549;42.162;24.726;2022-12-10T07:23:27;47882.38;;;-141.97;100.00
7018;BME280;3549;42.162;24.726;2022-12-10T07:25:54;47915.03;;;-141.97;100.00
7018;BME280;3549;42.162;24.726;2022-12-10T07:28:19;47968.88;;;-141.97;100.00
7018;BME280;3549;42.162;24.726;2022-12-10T07:30:44;47990.00;;;-141.97;100.00
7018;BME280;3549;42.162;24.726;2022-12-10T07:33:10;47945.81;;;-141.97;100.00
7018;BME280;3549;42.162;24.726;2022-12-10T07:35:38;47874.69;;;-141.97;100.00
7018;BME280;3549;42.162;24.726;2022-12-10T07:38:03;47907.34;;;-141.97;100.00
7018;BME280;3549;42.162;24.726;2022-12-10T07:40:29;48015.00;;;-141.97;100.00
7018;BME280;3549;42.162;24.726;2022-12-10T07:42:54;47765.09;;;-141.97;100.00
7018;BME280;3549;42.162;24.726;2022-12-10T07:45:19;47926.56;;;-141.97;100.00
7018;BME280;3549;42.162;24.726;2022-12-10T07:47:45;47870.81;;;-141.97;100.00
7018;BME280;3549;42.162;24.726;2022-12-10T07:50:10;47920.81;;;-141.97;100.00
7018;BME280;3549;42.162;24.726;2022-12-10T07:52:36;47915.03;;;-141.97;100.00
7018;BME280;3549;42.162;24.726;2022-12-10T07:55:01;47836.22;;;-141.97;100.00
7018;BME280;3549;42.162;24.726;2022-12-10T07:57:28;47920.81;;;-141.97;100.00
7018;BME280;3549;42.162;24.726;2022-12-10T07:59:54;47895.81;;;-141.97;100.00
7018;BME280;3549;42.162;24.726;2022-12-10T08:02:19;48011.16;;;-141.97;100.00
7018;BME280;3549;42.162;24.726;2022-12-10T08:04:45;47899.66;;;-141.97;100.00
7018;BME280;3549;42.162;24.726;2022-12-10T08:07:10;47890.06;;;-141.97;100.00
7018;BME280;3549;42.162;24.726;2022-12-10T08:09:36;47845.84;;;-141.97;100.00
7018;BME280;3549;42.162;24.726;2022-12-10T08:12:01;47893.91;;;-141.97;100.00
7018;BME280;3549;42.162;24.726;2022-12-10T08:14:27;47920.81;;;-141.97;100.00
7018;BME280;3549;42.162;24.726;2022-12-10T08:16:52;47972.72;;;-141.97;100.00
7018;BME280;3549;42.162;24.726;2022-12-10T08:19:18;47945.81;;;-141.97;100.00
7018;BME280;3549;42.162;24.726;2022-12-10T08:21:43;47884.28;;;-141.97;100.00
7018;BME280;3549;42.162;24.726;2022-12-10T08:24:09;47926.56;;;-141.97;100.00
7018;BME280;3549;42.162;24.726;2022-12-10T08:26:34;47905.44;;;-141.97;100.00
7018;BME280;3549;42.162;24.726;2022-12-10T08:29:00;47926.56;;;-141.97;100.00
7018;BME280;3549;42.162;24.726;2022-12-10T08:31:27;47922.72;;;-141.97;100.00
7018;BME280;3549;42.162;24.726;2022-12-10T08:33:53;47888.13;;;-141.97;100.00
7018;BME280;3549;42.162;24.726;2022-12-10T08:36:19;47767.03;;;-141.97;100.00
7018;BME280;3549;42.162;24.726;2022-12-10T08:38:45;47918.88;;;-141.97;100.00
7018;BME280;3549;42.162;24.726;2022-12-10T08:41:13;47947.72;;;-141.97;100.00
7018;BME280;3549;42.162;24.726;2022-12-10T08:43:39;47926.56;;;-141.97;100.00
7018;BME280;3549;42.162;24.726;2022-12-10T08:46:06;47842.00;;;-141.97;100.00
7018;BME280;3549;42.162;24.726;2022-12-10T08:48:32;47882.38;;;-141.97;100.00
7018;BME280;3549;42.162;24.726;2022-12-10T08:50:57;47913.13;;;-141.97;100.00
7018;BME280;3549;42.162;24.726;2022-12-10T08:53:23;47834.31;;;-141.97;100.00
7018;BME280;3549;42.162;24.726;2022-12-10T08:55:53;47970.78;;;-141.97;100.00
7018;BME280;3549;42.162;24.726;2022-12-10T08:58:19;47918.88;;;-141.97;100.00
7018;BME280;3549;42.162;24.726;2022-12-10T09:00:45;47978.47;;;-141.97;100.00
7018;BME280;3549;42.162;24.726;2022-12-10T09:03:10;47918.88;;;-141.97;100.00
7018;BME280;3549;42.162;24.726;2022-12-10T09:05:36;47932.34;;;-141.97;100.00
7018;BME280;3549;42.162;24.726;2022-12-10T09:08:02;48041.91;;;-141.97;100.00
7018;BME280;3549;42.162;24.726;2022-12-10T09:10:28;47895.81;;;-141.97;100.00
7018;BME280;3549;42.162;24.726;2022-12-10T09:12:55;47907.34;;;-141.97;100.00
7018;BME280;3549;42.162;24.726;2022-12-10T09:15:21;47938.09;;;-141.97;100.00
7018;BME280;3549;42.162;24.726;2022-12-10T09:17:47;47872.75;;;-141.97;100.00
7018;BME280;3549;42.162;24.726;2022-12-10T09:20:17;47926.56;;;-141.97;100.00
7018;BME280;3549;42.162;24.726;2022-12-10T09:22:43;47911.19;;;-141.97;100.00
7018;BME280;3549;42.162;24.726;2022-12-10T09:25:10;47905.44;;;-141.97;99.86
7018;BME280;3549;42.162;24.726;2022-12-10T09:27:37;47968.88;;;-141.97;98.80
7018;BME280;3549;42.162;24.726;2022-12-10T09:30:06;47913.13;;;-141.97;97.71
7018;BME280;3549;42.162;24.726;2022-12-10T09:32:32;47911.19;;;-141.97;97.94
7018;BME280;3549;42.162;24.726;2022-12-10T09:34:57;47895.81;;;-141.97;96.40
7018;BME280;3549;42.162;24.726;2022-12-10T09:37:22;48041.91;;;-141.97;92.39
7018;BME280;3549;42.162;24.726;2022-12-10T09:39:48;47907.34;;;-141.97;89.57
7018;BME280;3549;42.162;24.726;2022-12-10T09:45:40;47918.88;;;-141.97;86.60
7018;BME280;3549;42.162;24.726;2022-12-10T09:48:25;47882.38;;;-141.97;84.35
7018;BME280;3549;42.162;24.726;2022-12-10T09:51:09;47888.13;;;-141.97;84.78
7018;BME280;3549;42.162;24.726;2022-12-10T09:53:38;47866.97;;;-141.97;84.55
7018;BME280;3549;42.162;24.726;2022-12-10T09:56:04;47866.97;;;-141.97;84.13
7018;BME280;3549;42.162;24.726;2022-12-10T09:58:30;47913.13;;;-141.97;86.57
7018;BME280;3549;42.162;24.726;2022-12-10T10:01:04;47895.81;;;-141.97;86.20
7018;BME280;3549;42.162;24.726;2022-12-10T10:03:34;47874.69;;;-141.97;86.41
7018;BME280;3549;42.162;24.726;2022-12-10T10:06:02;47913.13;;;-141.97;86.69
7018;BME280;3549;42.162;24.726;2022-12-10T10:08:33;47868.91;;;-141.97;87.09
7018;BME280;3549;42.162;24.726;2022-12-10T10:11:00;47868.91;;;-141.97;85.09
7018;BME280;3549;42.162;24.726;2022-12-10T10:13:34;47897.75;;;-141.97;87.09
7018;BME280;3549;42.162;24.726;2022-12-10T10:21:29;47897.75;;;-141.97;89.18
7018;BME280;3549;42.162;24.726;2022-12-10T10:23:57;47901.59;;;-141.97;88.48
7018;BME280;3549;42.162;24.726;2022-12-10T10:26:26;47874.69;;;-141.97;87.65
7018;BME280;3549;42.162;24.726;2022-12-10T10:28:57;47866.97;;;-141.97;88.11
7018;BME280;3549;42.162;24.726;2022-12-10T10:31:26;47915.03;;;-141.97;87.82
7018;BME280;3549;42.162;24.726;2022-12-10T10:33:56;47903.50;;;-141.97;87.67
7018;BME280;3549;42.162;24.726;2022-12-10T10:36:42;47918.88;;;-141.97;86.89
7018;BME280;3549;42.162;24.726;2022-12-10T10:41:40;47895.81;;;-141.97;85.54
7018;BME280;3549;42.162;24.726;2022-12-10T10:44:14;47961.19;;;-141.97;84.84
7018;BME280;3549;42.162;24.726;2022-12-10T10:46:41;47868.91;;;-141.97;83.84
7018;BME280;3549;42.162;24.726;2022-12-10T10:49:27;47886.22;;;-141.97;83.71
7018;BME280;3549;42.162;24.726;2022-12-10T10:51:58;47909.28;;;-141.97;83.24
7018;BME280;3549;42.162;24.726;2022-12-10T10:57:25;47897.75;;;-141.97;81.51
7018;BME280;3549;42.162;24.726;2022-12-10T10:59:55;47868.91;;;-141.97;81.66
7018;BME280;3549;42.162;24.726;2022-12-10T11:02:30;47899.66;;;-141.97;82.25
7018;BME280;3549;42.162;24.726;2022-12-10T11:05:05;47880.44;;;-141.97;82.74
7018;BME280;3549;42.162;24.726;2022-12-10T11:07:34;47915.03;;;-141.97;82.83
7018;BME280;3549;42.162;24.726;2022-12-10T11:10:02;47888.13;;;-141.97;83.42
7018;BME280;3549;42.162;24.726;2022-12-10T11:12:37;47861.22;;;-141.97;85.12
7018;BME280;3549;42.162;24.726;2022-12-10T11:17:52;47882.38;;;-141.97;87.51
7018;BME280;3549;42.162;24.726;2022-12-10T11:23:01;47916.97;;;-141.97;87.57
7018;BME280;3549;42.162;24.726;2022-12-10T11:28:36;47909.28;;;-141.97;86.11
7018;BME280;3549;42.162;24.726;2022-12-10T12:01:28;47999.63;;;-141.97;82.00
7018;BME280;3549;42.162;24.726;2022-12-10T12:04:23;47872.75;;;-141.97;81.68
7018;BME280;3549;42.162;24.726;2022-12-10T12:14:49;47918.88;;;-141.97;80.17
7018;BME280;3549;42.162;24.726;2022-12-10T12:17:38;47890.06;;;-141.97;80.40
7018;BME280;3549;42.162;24.726;2022-12-10T12:20:18;47901.59;;;-141.97;79.57
7018;BME280;3549;42.162;24.726;2022-12-10T12:22:50;47880.44;;;-141.97;79.18
7018;BME280;3549;42.162;24.726;2022-12-10T12:25:31;48032.31;;;-141.97;79.17
7018;BME280;3549;42.162;24.726;2022-12-10T12:28:15;47909.28;;;-141.97;79.36
7018;BME280;3549;42.162;24.726;2022-12-10T12:30:46;47870.81;;;-141.97;79.71
7018;BME280;3549;42.162;24.726;2022-12-10T12:36:20;47918.88;;;-141.97;81.29
7018;BME280;3549;42.162;24.726;2022-12-10T12:38:57;47861.22;;;-141.97;81.25
7018;BME280;3549;42.162;24.726;2022-12-10T12:41:40;47999.63;;;-141.97;81.73
7018;BME280;3549;42.162;24.726;2022-12-10T12:44:19;47878.53;;;-141.97;82.24
7018;BME280;3549;42.162;24.726;2022-12-10T12:46:48;47876.59;;;-141.97;82.87
7018;BME280;3549;42.162;24.726;2022-12-10T12:49:22;47882.38;;;-141.97;82.89
7018;BME280;3549;42.162;24.726;2022-12-10T12:54:21;47859.28;;;-141.97;83.00
7018;BME280;3549;42.162;24.726;2022-12-10T12:56:57;47886.22;;;-141.97;82.55
7018;BME280;3549;42.162;24.726;2022-12-10T13:05:35;47845.84;;;-141.97;82.37
7018;BME280;3549;42.162;24.726;2022-12-10T13:11:00;47874.69;;;-141.97;82.73
7018;BME280;3549;42.162;24.726;2022-12-10T13:13:37;47838.16;;;-141.97;83.57
7018;BME280;3549;42.162;24.726;2022-12-10T13:24:42;47995.78;;;-141.97;84.49
7018;BME280;3549;42.162;24.726;2022-12-10T13:38:03;47853.53;;;-141.97;86.05
7018;BME280;3549;42.162;24.726;2022-12-10T13:43:20;47818.94;;;-141.97;86.28
7018;BME280;3549;42.162;24.726;2022-12-10T13:49:27;47888.13;;;-141.97;87.10
7018;BME280;3549;42.162;24.726;2022-12-10T13:54:48;47895.81;;;-141.97;87.68
7018;BME280;3549;42.162;24.726;2022-12-10T14:00:17;47876.59;;;-141.97;88.89
7018;BME280;3549;42.162;24.726;2022-12-10T14:08:02;47868.91;;;-141.97;89.35
7018;BME280;3549;42.162;24.726;2022-12-10T14:10:34;47897.75;;;-141.97;89.41
7018;BME280;3549;42.162;24.726;2022-12-10T14:13:03;47880.44;;;-141.97;89.27
7018;BME280;3549;42.162;24.726;2022-12-10T14:15:30;47863.13;;;-141.97;89.33
7018;BME280;3549;42.162;24.726;2022-12-10T14:18:10;47838.16;;;-141.97;89.67
7018;BME280;3549;42.162;24.726;2022-12-10T14:20:40;47865.06;;;-141.97;89.94
7018;BME280;3549;42.162;24.726;2022-12-10T14:23:24;47920.81;;;-141.97;90.22
7018;BME280;3549;42.162;24.726;2022-12-10T14:26:08;47991.94;;;-141.97;90.45
7018;BME280;3549;42.162;24.726;2022-12-10T14:28:43;47870.81;;;-141.97;91.22
7018;BME280;3549;42.162;24.726;2022-12-10T14:31:16;47893.91;;;-141.97;91.16
7018;BME280;3549;42.162;24.726;2022-12-10T14:33:44;47901.59;;;-141.97;91.26
7018;BME280;3549;42.162;24.726;2022-12-10T14:36:45;47918.88;;;-141.97;92.25
7018;BME280;3549;42.162;24.726;2022-12-10T14:39:18;47876.59;;;-141.97;92.55
7018;BME280;3549;42.162;24.726;2022-12-10T14:41:45;47876.59;;;-141.97;93.20
7018;BME280;3549;42.162;24.726;2022-12-10T14:44:14;47874.69;;;-141.97;93.31
7018;BME280;3549;42.162;24.726;2022-12-10T14:46:40;47874.69;;;-141.97;93.83
7018;BME280;3549;42.162;24.726;2022-12-10T14:49:08;47907.34;;;-141.97;94.06
7018;BME280;3549;42.162;24.726;2022-12-10T14:51:40;47895.81;;;-141.97;94.73
7018;BME280;3549;42.162;24.726;2022-12-10T14:54:23;47878.53;;;-141.97;94.76
7018;BME280;3549;42.162;24.726;2022-12-10T14:56:50;47891.97;;;-141.97;95.12
7018;BME280;3549;42.162;24.726;2022-12-10T14:59:43;47911.19;;;-141.97;95.91
7018;BME280;3549;42.162;24.726;2022-12-10T15:02:20;47855.44;;;-141.97;96.92
7018;BME280;3549;42.162;24.726;2022-12-10T15:04:48;47895.81;;;-141.97;97.29